Terminal Aerodrome Forecast
Issued by NWS Jackson, MS

Home | Current Version | Previous Version | Text Only | Print | Product List | Glossary On
Versions: 1 2 3 4 5 6 7 8 9 10 11 12 13 14
000
FTUS44 KJAN 231139
TAFMEI
TAF
KMEI 231139Z 2312/2412 00000KT 1SM BR OVC002
     FM231300 19003KT 5SM BR BKN005
     FM231400 20004KT P6SM SCT030
     FM231700 21006KT P6SM VCTS SCT050CB
     FM240200 18003KT P6SM SCT250=

USA.gov is the U.S. government's official web portal to all federal, state and local government web resources and services.